Time;durP1;ratioP1;P1;durP2;ratioP2;P2;SDS_P1;SDS_P2;PMS_P1;PMS_P2;Temp;Humidity;BMP_temperature;BMP_pressure;BME280_temperature;BME280_humidity;BME280_pressure;Samples;Min_cycle;Max_cycle;Signal;HPM_P1;HPM_P2
2022/09/27 00:00:05;;;;;;;9.38;1.30;;;10.20;99.90;;;;;;4889941;28;20465;-73
2022/09/27 00:02:31;;;;;;;12.43;1.58;;;10.10;99.90;;;;;;4920748;29;20047;-73
2022/09/27 00:04:57;;;;;;;9.77;1.90;;;10.10;99.90;;;;;;4920518;29;20057;-74
2022/09/27 00:07:24;;;;;;;9.10;1.38;;;10.10;99.90;;;;;;4929668;28;20379;-73
2022/09/27 00:09:49;;;;;;;6.95;1.67;;;10.00;99.90;;;;;;4911722;29;20154;-74
2022/09/27 00:12:15;;;;;;;10.20;1.42;;;9.90;99.90;;;;;;4930475;28;20118;-73
2022/09/27 00:14:41;;;;;;;5.85;1.00;;;9.90;99.90;;;;;;4897582;29;20569;-75
2022/09/27 00:17:07;;;;;;;7.90;1.00;;;9.90;99.90;;;;;;4918824;29;20090;-74
2022/09/27 00:19:33;;;;;;;5.60;0.90;;;9.80;99.90;;;;;;4922145;28;20098;-74
2022/09/27 00:22:02;;;;;;;5.78;1.17;;;9.80;99.90;;;;;;4928377;29;20474;-74
2022/09/27 00:24:30;;;;;;;8.27;1.27;;;9.80;99.90;;;;;;4896274;28;20644;-74
2022/09/27 00:26:56;;;;;;;9.80;1.20;;;9.70;99.90;;;;;;4930647;29;20157;-74
2022/09/27 00:29:22;;;;;;;5.72;0.98;;;9.70;99.90;;;;;;4928870;28;20036;-74
2022/09/27 00:31:48;;;;;;;6.40;1.30;;;9.60;99.90;;;;;;4894573;29;20066;-74
2022/09/27 00:34:22;;;;;;;7.60;1.10;;;9.60;99.90;;;;;;4914042;29;20498;-74
2022/09/27 00:36:49;;;;;;;6.07;0.88;;;9.60;99.90;;;;;;4924040;29;20051;-73
2022/09/27 00:39:15;;;;;;;3.70;0.85;;;9.60;99.90;;;;;;4918400;29;20043;-74
2022/09/27 00:41:41;;;;;;;8.88;1.40;;;9.50;99.90;;;;;;4906672;29;20047;-74
2022/09/27 00:44:25;;;;;;;6.70;1.55;;;9.60;99.90;;;;;;4918096;29;20516;-73
2022/09/27 00:47:09;;;;;;;5.85;1.25;;;9.60;99.90;;;;;;4936021;28;20050;-75
2022/09/27 00:49:44;;;;;;;4.32;0.88;;;9.60;99.90;;;;;;4925329;29;20114;-74
2022/09/27 00:52:22;;;;;;;5.00;0.90;;;9.60;99.90;;;;;;4908212;29;20047;-74
2022/09/27 00:54:52;;;;;;;7.10;0.98;;;9.60;99.90;;;;;;4890261;29;20059;-74
2022/09/27 00:57:21;;;;;;;4.85;1.05;;;9.60;99.90;;;;;;4914721;29;20051;-74
2022/09/27 00:59:51;;;;;;;8.20;1.15;;;9.60;99.90;;;;;;4913969;29;20078;-74
2022/09/27 01:02:17;;;;;;;3.20;0.80;;;9.60;99.90;;;;;;4912294;29;20135;-74
2022/09/27 01:04:44;;;;;;;6.50;0.90;;;9.60;99.90;;;;;;4895109;29;20050;-73
2022/09/27 01:07:10;;;;;;;7.50;1.23;;;9.60;99.90;;;;;;4923081;29;20055;-73
2022/09/27 01:09:36;;;;;;;8.20;1.15;;;9.60;99.90;;;;;;4908924;29;20043;-74
2022/09/27 01:12:23;;;;;;;10.20;1.35;;;9.60;99.90;;;;;;4889539;29;20040;-73
2022/09/27 01:15:01;;;;;;;3.63;1.00;;;9.60;99.90;;;;;;4907902;29;20055;-73
2022/09/27 01:17:34;;;;;;;9.63;1.05;;;9.60;99.90;;;;;;4909709;29;20056;-74
2022/09/27 01:20:14;;;;;;;14.43;1.50;;;9.60;99.90;;;;;;4905950;29;20055;-73
2022/09/27 01:22:55;;;;;;;7.00;1.02;;;9.60;99.90;;;;;;4917588;29;20067;-74
2022/09/27 01:25:55;;;;;;;6.65;1.10;;;9.60;99.90;;;;;;4922759;29;20048;-73
2022/09/27 01:29:02;;;;;;;4.55;1.40;;;9.60;99.90;;;;;;4911396;29;20083;-73
2022/09/27 01:32:14;;;;;;;3.40;0.75;;;9.60;99.90;;;;;;4865826;29;20044;-73
2022/09/27 01:35:06;;;;;;;4.53;0.80;;;9.70;99.90;;;;;;4843461;29;20178;-73
2022/09/27 01:37:34;;;;;;;6.47;1.48;;;9.70;99.90;;;;;;4855809;29;20136;-71
2022/09/27 01:40:10;;;;;;;5.00;1.00;;;9.70;99.90;;;;;;4884453;29;20055;-73
2022/09/27 01:42:41;;;;;;;5.72;1.00;;;9.60;99.90;;;;;;4905117;29;20111;-73
2022/09/27 01:45:20;;;;;;;6.15;0.90;;;9.70;99.90;;;;;;4898914;29;20051;-73
2022/09/27 01:47:53;;;;;;;4.90;0.80;;;9.60;99.90;;;;;;4917067;29;20127;-73
2022/09/27 01:50:55;;;;;;;5.47;1.00;;;9.60;99.90;;;;;;4927927;29;20657;-73
2022/09/27 01:53:32;;;;;;;3.97;1.00;;;9.60;99.90;;;;;;4894088;29;20055;-73
2022/09/27 01:56:02;;;;;;;7.20;1.38;;;9.50;99.90;;;;;;4931043;29;20047;-73
2022/09/27 01:58:49;;;;;;;10.63;1.08;;;9.50;99.90;;;;;;4934000;29;20398;-73
2022/09/27 02:01:17;;;;;;;4.13;0.80;;;9.50;99.90;;;;;;4913106;28;20095;-72
2022/09/27 02:03:48;;;;;;;7.18;1.27;;;9.50;99.90;;;;;;4924093;28;20091;-73
2022/09/27 02:06:40;;;;;;;5.90;0.60;;;9.50;99.90;;;;;;4924473;29;20584;-73
2022/09/27 02:09:12;;;;;;;7.30;0.80;;;9.50;99.90;;;;;;4929239;29;20125;-73
2022/09/27 02:11:42;;;;;;;5.78;1.00;;;9.50;99.90;;;;;;4929518;29;20387;-73
2022/09/27 02:14:20;;;;;;;6.43;0.90;;;9.50;99.90;;;;;;4935817;28;20093;-73
2022/09/27 02:16:58;;;;;;;5.70;1.00;;;9.50;99.90;;;;;;4915947;29;20055;-73
2022/09/27 02:19:30;;;;;;;7.32;1.13;;;9.50;99.90;;;;;;4927814;29;20047;-72
2022/09/27 02:22:28;;;;;;;8.25;1.02;;;9.60;99.90;;;;;;4934501;29;20050;-73
2022/09/27 02:25:02;;;;;;;7.13;1.17;;;9.60;99.90;;;;;;4936769;29;20039;-73
2022/09/27 02:27:37;;;;;;;6.13;1.08;;;9.60;99.90;;;;;;4913909;29;20048;-73
2022/09/27 02:30:13;;;;;;;6.13;1.00;;;9.60;99.90;;;;;;4935024;29;20062;-74
2022/09/27 02:32:40;;;;;;;4.30;1.00;;;9.60;99.90;;;;;;4937534;29;20071;-73
2022/09/27 02:35:09;;;;;;;3.58;0.68;;;9.50;99.90;;;;;;4930956;29;20130;-73
2022/09/27 02:37:35;;;;;;;6.22;0.95;;;9.50;99.90;;;;;;4933068;29;20047;-74
2022/09/27 02:40:03;;;;;;;7.75;0.90;;;9.50;99.90;;;;;;4917134;29;20047;-73
2022/09/27 02:42:33;;;;;;;6.47;0.90;;;9.50;99.90;;;;;;4930527;28;20062;-73
2022/09/27 02:45:00;;;;;;;6.78;1.20;;;9.50;99.90;;;;;;4905746;28;20039;-74
2022/09/27 02:47:38;;;;;;;7.13;1.05;;;9.60;99.90;;;;;;4930256;29;20051;-74
2022/09/27 02:50:25;;;;;;;4.18;0.80;;;9.50;99.90;;;;;;4951215;28;20976;-74
2022/09/27 02:53:09;;;;;;;8.43;0.70;;;9.50;99.90;;;;;;4933834;28;20134;-74
2022/09/27 02:55:59;;;;;;;5.60;0.85;;;9.50;99.90;;;;;;4930188;29;20061;-74
2022/09/27 02:58:53;;;;;;;8.27;1.00;;;9.50;99.90;;;;;;4919823;29;20051;-73
2022/09/27 03:01:43;;;;;;;5.30;0.90;;;9.50;99.90;;;;;;4920717;28;20357;-73
2022/09/27 03:04:34;;;;;;;6.50;1.00;;;9.50;99.90;;;;;;4923493;29;20059;-73
2022/09/27 03:07:01;;;;;;;6.97;1.00;;;9.50;99.90;;;;;;4931991;28;20118;-73
2022/09/27 03:09:46;;;;;;;6.85;0.90;;;9.50;99.90;;;;;;4894567;29;20039;-73
2022/09/27 03:12:13;;;;;;;5.68;1.00;;;9.50;99.90;;;;;;4923350;29;20043;-73
2022/09/27 03:14:39;;;;;;;4.32;0.63;;;9.50;99.90;;;;;;4917154;29;20051;-73
2022/09/27 03:17:05;;;;;;;5.45;0.80;;;9.50;99.90;;;;;;4916832;28;20054;-75
2022/09/27 03:19:31;;;;;;;5.53;0.90;;;9.50;99.90;;;;;;4930778;29;20086;-73
2022/09/27 03:21:57;;;;;;;6.05;0.90;;;9.50;99.90;;;;;;4931245;28;20110;-73
2022/09/27 03:24:22;;;;;;;5.70;0.93;;;9.50;99.90;;;;;;4938386;28;20146;-73
2022/09/27 03:26:49;;;;;;;5.80;1.00;;;9.50;99.90;;;;;;4912343;28;20268;-73
2022/09/27 03:29:15;;;;;;;4.57;0.60;;;9.50;99.90;;;;;;4918279;29;20042;-73
2022/09/27 03:31:41;;;;;;;5.53;0.68;;;9.50;99.90;;;;;;4918369;28;20039;-74
2022/09/27 03:34:07;;;;;;;4.82;0.82;;;9.50;99.90;;;;;;4911040;29;20482;-73
2022/09/27 03:36:33;;;;;;;6.55;1.35;;;9.50;99.90;;;;;;4917858;29;20399;-72
2022/09/27 03:38:59;;;;;;;1.38;0.55;;;9.50;99.90;;;;;;4940851;29;20047;-73
2022/09/27 03:41:24;;;;;;;3.72;0.68;;;9.50;99.90;;;;;;4923608;28;20043;-72
2022/09/27 03:43:50;;;;;;;3.33;0.70;;;9.50;99.90;;;;;;4902418;29;20039;-75
2022/09/27 03:46:19;;;;;;;4.07;0.63;;;9.40;99.90;;;;;;4901746;28;20038;-73
2022/09/27 03:48:45;;;;;;;4.78;0.85;;;9.40;99.90;;;;;;4938440;29;20046;-73
2022/09/27 03:51:11;;;;;;;5.55;1.05;;;9.40;99.90;;;;;;4904865;29;20040;-73
2022/09/27 03:53:37;;;;;;;5.53;0.70;;;9.40;99.90;;;;;;4905322;29;20047;-71
2022/09/27 03:56:03;;;;;;;4.28;0.50;;;9.40;99.90;;;;;;4919798;29;20134;-73
2022/09/27 03:58:29;;;;;;;6.10;0.80;;;9.40;99.90;;;;;;4901283;29;20498;-73
2022/09/27 04:00:55;;;;;;;4.78;0.80;;;9.40;99.90;;;;;;4893401;29;20147;-72
2022/09/27 04:03:21;;;;;;;6.05;0.70;;;9.40;99.90;;;;;;4889924;29;20410;-73
2022/09/27 04:05:46;;;;;;;6.07;1.00;;;9.40;99.90;;;;;;4887909;29;20138;-73
2022/09/27 04:08:12;;;;;;;5.07;0.80;;;9.40;99.90;;;;;;4902144;29;20107;-73
2022/09/27 04:10:38;;;;;;;3.95;0.60;;;9.40;99.90;;;;;;4911071;29;20046;-73
2022/09/27 04:13:04;;;;;;;8.50;1.10;;;9.40;99.90;;;;;;4913471;29;20071;-75
2022/09/27 04:15:30;;;;;;;4.85;0.90;;;9.40;99.90;;;;;;4901753;29;20414;-73
2022/09/27 04:17:56;;;;;;;6.93;0.85;;;9.40;99.90;;;;;;4919211;29;20047;-73
2022/09/27 04:20:21;;;;;;;4.28;0.63;;;9.40;99.90;;;;;;4908567;29;20525;-72
2022/09/27 04:22:47;;;;;;;6.40;0.90;;;9.40;99.90;;;;;;4893032;29;20055;-74
2022/09/27 04:25:13;;;;;;;8.13;1.13;;;9.40;99.90;;;;;;4892878;29;20047;-73
2022/09/27 04:27:44;;;;;;;5.05;1.02;;;9.40;99.90;;;;;;4913835;29;20447;-74
2022/09/27 04:30:11;;;;;;;3.03;0.80;;;9.30;99.90;;;;;;4905977;29;20071;-73
2022/09/27 04:32:44;;;;;;;5.13;0.70;;;9.30;99.90;;;;;;4897782;29;20043;-73
2022/09/27 04:37:55;;;;;;;5.82;0.70;;;9.30;99.90;;;;;;4905049;29;20043;-73
2022/09/27 04:40:21;;;;;;;5.55;0.70;;;9.30;99.90;;;;;;4924642;29;20070;-73
2022/09/27 04:42:48;;;;;;;5.05;0.55;;;9.30;99.90;;;;;;4893365;29;20103;-73
2022/09/27 04:45:14;;;;;;;7.28;1.15;;;9.20;99.90;;;;;;4913778;29;20083;-73
2022/09/27 04:47:47;;;;;;;4.43;0.80;;;9.30;99.90;;;;;;4913680;29;20048;-73
2022/09/27 04:50:14;;;;;;;6.18;0.73;;;9.30;99.90;;;;;;4890761;29;20736;-73
2022/09/27 04:52:40;;;;;;;4.80;0.65;;;9.30;99.90;;;;;;4900683;28;20051;-73
2022/09/27 04:55:10;;;;;;;5.13;0.80;;;9.20;99.90;;;;;;4906893;29;20054;-73
2022/09/27 04:57:35;;;;;;;3.05;0.50;;;9.20;99.90;;;;;;4919201;28;20047;-74
2022/09/27 05:00:03;;;;;;;5.95;0.70;;;9.20;99.90;;;;;;4919754;29;20111;-73
2022/09/27 05:02:30;;;;;;;2.70;0.43;;;9.20;99.90;;;;;;4914352;29;20055;-73
2022/09/27 05:04:57;;;;;;;4.65;0.70;;;9.20;99.90;;;;;;4943961;28;20055;-73
2022/09/27 05:07:24;;;;;;;3.75;0.50;;;9.20;99.90;;;;;;4926312;29;20154;-74
2022/09/27 05:09:50;;;;;;;5.18;0.52;;;9.20;99.90;;;;;;4906781;29;20055;-75
2022/09/27 05:12:15;;;;;;;2.72;0.52;;;9.10;99.90;;;;;;4915686;29;20043;-73
2022/09/27 05:14:41;;;;;;;7.50;0.80;;;9.10;99.90;;;;;;4923100;29;20047;-74
2022/09/27 05:17:07;;;;;;;4.07;0.73;;;9.10;99.90;;;;;;4913713;28;20051;-73
2022/09/27 05:19:33;;;;;;;4.18;0.70;;;9.00;99.90;;;;;;4925465;29;20058;-74
2022/09/27 05:21:59;;;;;;;3.47;0.63;;;9.00;99.90;;;;;;4911456;28;20043;-73
2022/09/27 05:24:26;;;;;;;6.00;0.73;;;9.00;99.90;;;;;;4923031;29;20039;-74
2022/09/27 05:26:53;;;;;;;4.93;0.90;;;9.00;99.90;;;;;;4927290;28;20101;-73
2022/09/27 05:29:19;;;;;;;3.70;0.65;;;8.90;99.90;;;;;;4939691;28;20342;-73
2022/09/27 05:31:46;;;;;;;3.72;0.80;;;8.90;99.90;;;;;;4911243;28;20046;-73
2022/09/27 05:34:12;;;;;;;5.35;0.52;;;8.80;99.90;;;;;;4913945;29;20047;-73
2022/09/27 05:36:38;;;;;;;4.30;0.70;;;8.80;99.90;;;;;;4917154;28;20051;-73
2022/09/27 05:39:05;;;;;;;6.10;1.17;;;8.70;99.90;;;;;;4919776;29;20057;-74
2022/09/27 05:41:31;;;;;;;6.15;0.80;;;8.70;99.90;;;;;;4909147;28;20414;-74
2022/09/27 05:43:57;;;;;;;2.28;0.60;;;8.70;99.90;;;;;;4924676;29;20054;-73
2022/09/27 05:46:23;;;;;;;6.20;0.88;;;8.60;99.90;;;;;;4902262;29;20042;-73
2022/09/27 05:48:49;;;;;;;5.50;1.10;;;8.60;99.90;;;;;;4924289;29;20055;-74
2022/09/27 05:51:15;;;;;;;4.45;0.73;;;8.60;99.90;;;;;;4912115;29;20703;-73
2022/09/27 05:53:41;;;;;;;5.45;0.90;;;8.60;99.90;;;;;;4920909;29;20520;-72
2022/09/27 05:56:06;;;;;;;4.25;0.80;;;8.60;99.90;;;;;;4913436;28;20557;-73
2022/09/27 05:58:35;;;;;;;5.68;1.00;;;8.60;99.90;;;;;;4908330;29;20059;-73
2022/09/27 06:01:01;;;;;;;4.22;0.80;;;8.60;99.90;;;;;;4927276;29;20043;-73
2022/09/27 06:03:26;;;;;;;7.15;1.20;;;8.60;99.90;;;;;;4908297;29;20051;-73
2022/09/27 06:05:52;;;;;;;6.53;1.15;;;8.60;99.90;;;;;;4910247;28;20043;-73
2022/09/27 06:08:19;;;;;;;6.78;1.13;;;8.60;99.90;;;;;;4924975;29;20393;-73
2022/09/27 06:10:46;;;;;;;6.30;1.00;;;8.60;99.90;;;;;;4918348;29;20051;-73
2022/09/27 06:13:14;;;;;;;4.90;1.10;;;8.60;99.90;;;;;;4903445;29;20044;-75
2022/09/27 06:15:42;;;;;;;3.95;0.90;;;8.60;99.90;;;;;;4918809;29;20098;-73
2022/09/27 06:18:15;;;;;;;7.50;1.33;;;8.60;99.90;;;;;;4919758;28;20441;-73
2022/09/27 06:20:41;;;;;;;7.43;1.60;;;8.70;99.90;;;;;;4927086;29;20071;-73
2022/09/27 06:23:09;;;;;;;6.38;1.70;;;8.70;99.90;;;;;;4929438;29;20679;-72
2022/09/27 06:25:35;;;;;;;6.03;1.30;;;8.80;99.90;;;;;;4921023;29;20071;-73
2022/09/27 06:28:02;;;;;;;5.22;1.52;;;8.80;99.90;;;;;;4925119;29;20110;-73
2022/09/27 06:30:29;;;;;;;6.72;1.55;;;8.90;99.90;;;;;;4882995;29;20786;-73
2022/09/27 06:32:56;;;;;;;8.38;2.15;;;8.90;99.90;;;;;;4913487;29;20513;-73
2022/09/27 06:35:23;;;;;;;7.07;1.90;;;9.00;99.90;;;;;;4930398;29;20044;-73
2022/09/27 06:37:52;;;;;;;6.22;1.38;;;9.00;99.90;;;;;;4911513;29;20043;-73
2022/09/27 06:40:19;;;;;;;3.95;1.40;;;9.00;99.90;;;;;;4919791;29;20122;-73
2022/09/27 06:42:45;;;;;;;4.35;1.00;;;9.10;99.90;;;;;;4947215;28;20043;-73
2022/09/27 06:45:11;;;;;;;7.05;1.63;;;9.10;99.90;;;;;;4910480;29;20110;-72
2022/09/27 06:47:37;;;;;;;9.13;1.95;;;9.10;99.90;;;;;;4950738;28;20051;-73
2022/09/27 06:50:05;;;;;;;7.95;1.90;;;9.20;99.90;;;;;;4911053;29;20055;-73
2022/09/27 06:52:33;;;;;;;6.65;1.38;;;9.20;99.90;;;;;;4928755;29;20122;-73
2022/09/27 06:55:00;;;;;;;4.57;1.33;;;9.20;99.90;;;;;;4929297;29;20050;-72
2022/09/27 07:00:23;;;;;;;6.20;1.70;;;9.30;99.90;;;;;;4929703;29;20071;-73
2022/09/27 07:02:49;;;;;;;11.30;2.20;;;9.30;99.90;;;;;;4918860;29;20059;-74
2022/09/27 07:05:19;;;;;;;4.72;1.23;;;9.30;99.90;;;;;;4909211;29;20127;-73
2022/09/27 07:07:46;;;;;;;5.70;1.60;;;9.30;99.90;;;;;;4919835;29;20056;-73
2022/09/27 07:10:12;;;;;;;4.60;1.20;;;9.30;99.90;;;;;;4926990;28;20050;-73
2022/09/27 07:12:38;;;;;;;4.72;1.50;;;9.40;99.90;;;;;;4921293;29;20519;-73
2022/09/27 07:15:05;;;;;;;5.10;1.50;;;9.30;99.90;;;;;;4928332;29;20067;-73
2022/09/27 07:17:31;;;;;;;3.35;1.20;;;9.30;99.90;;;;;;4916873;28;20054;-72
2022/09/27 07:19:57;;;;;;;4.95;1.40;;;9.30;99.90;;;;;;4920241;29;20051;-73
2022/09/27 07:22:23;;;;;;;6.07;1.30;;;9.40;99.90;;;;;;4927779;28;20126;-72
2022/09/27 07:24:49;;;;;;;3.70;1.23;;;9.40;99.90;;;;;;4895477;28;20054;-73
2022/09/27 07:27:15;;;;;;;6.18;1.33;;;9.40;99.90;;;;;;4892408;29;20122;-73
2022/09/27 07:29:41;;;;;;;5.90;1.50;;;9.40;99.90;;;;;;4939351;28;20043;-72
2022/09/27 07:32:06;;;;;;;5.97;1.30;;;9.40;99.90;;;;;;4909463;28;20047;-73
2022/09/27 07:34:33;;;;;;;7.15;1.20;;;9.40;99.90;;;;;;4928643;29;20053;-73
2022/09/27 07:37:00;;;;;;;5.95;1.55;;;9.50;99.90;;;;;;4906797;29;20051;-73
2022/09/27 07:39:26;;;;;;;4.53;1.30;;;9.60;99.90;;;;;;4929194;28;20892;-73
2022/09/27 07:41:52;;;;;;;6.72;1.80;;;9.80;99.90;;;;;;4900627;29;20530;-73
2022/09/27 07:44:18;;;;;;;7.47;1.63;;;9.80;99.90;;;;;;4937710;28;20065;-74
2022/09/27 07:46:44;;;;;;;3.88;0.90;;;9.90;99.90;;;;;;4922112;29;20491;-72
2022/09/27 07:49:09;;;;;;;6.15;1.40;;;10.00;99.90;;;;;;4888062;29;20051;-73
2022/09/27 07:51:35;;;;;;;5.13;1.00;;;10.10;99.90;;;;;;4907198;29;20062;-73
2022/09/27 07:54:01;;;;;;;4.63;1.00;;;10.30;99.90;;;;;;4906379;29;20051;-73
2022/09/27 07:56:27;;;;;;;5.20;1.15;;;10.50;99.90;;;;;;4921126;29;20036;-73
2022/09/27 07:58:53;;;;;;;3.78;0.75;;;10.80;99.90;;;;;;4944776;28;20051;-73
2022/09/27 08:01:19;;;;;;;6.70;1.00;;;11.00;99.90;;;;;;4906245;29;20051;-73
2022/09/27 08:03:45;;;;;;;5.68;1.20;;;11.20;99.90;;;;;;4906722;29;20040;-73
2022/09/27 08:06:11;;;;;;;2.95;0.98;;;11.50;99.90;;;;;;4902926;29;20056;-73
2022/09/27 08:08:38;;;;;;;3.47;0.70;;;11.70;99.90;;;;;;4911217;29;20046;-73
2022/09/27 08:11:15;;;;;;;5.82;1.17;;;11.90;99.90;;;;;;4914747;29;20062;-73
2022/09/27 08:13:44;;;;;;;1.27;0.63;;;11.90;99.90;;;;;;4922187;29;20056;-73
2022/09/27 08:16:10;;;;;;;3.75;0.80;;;11.90;99.90;;;;;;4930903;29;20043;-73
2022/09/27 08:18:37;;;;;;;4.03;0.70;;;11.80;99.90;;;;;;4898394;29;20152;-73
2022/09/27 08:21:02;;;;;;;3.78;0.60;;;11.70;99.90;;;;;;4941604;28;20047;-73
2022/09/27 08:23:29;;;;;;;4.28;0.55;;;11.70;99.90;;;;;;4941936;28;20043;-73
2022/09/27 08:25:57;;;;;;;3.38;0.70;;;11.70;99.90;;;;;;4910425;29;20057;-73
2022/09/27 08:28:23;;;;;;;4.22;0.60;;;11.60;99.90;;;;;;4928664;28;20049;-74
2022/09/27 08:30:52;;;;;;;7.90;1.27;;;11.50;99.90;;;;;;4902938;29;20234;-73
2022/09/27 08:33:18;;;;;;;2.85;0.60;;;11.50;99.90;;;;;;4908101;29;20699;-73
2022/09/27 08:35:44;;;;;;;4.03;0.77;;;11.50;99.90;;;;;;4928208;29;20039;-74
2022/09/27 08:38:10;;;;;;;4.35;0.60;;;11.50;99.90;;;;;;4915117;29;20057;-73
2022/09/27 08:40:53;;;;;;;6.65;0.82;;;11.50;99.90;;;;;;4907043;29;20055;-74
2022/09/27 08:43:27;;;;;;;3.97;0.57;;;11.50;99.90;;;;;;4940600;28;20267;-73
2022/09/27 08:46:23;;;;;;;3.55;0.95;;;11.50;99.90;;;;;;4921490;29;20050;-74
2022/09/27 08:48:55;;;;;;;2.65;0.40;;;11.70;99.90;;;;;;4920806;29;20443;-74
2022/09/27 08:51:28;;;;;;;3.15;0.60;;;12.00;99.90;;;;;;4937892;29;20510;-74
2022/09/27 08:54:05;;;;;;;3.45;0.50;;;12.40;99.90;;;;;;4943797;28;20035;-74
2022/09/27 08:56:32;;;;;;;3.45;0.52;;;12.80;99.90;;;;;;4923581;28;20450;-74
2022/09/27 08:59:20;;;;;;;4.70;0.77;;;13.00;99.90;;;;;;4927294;29;20418;-73
2022/09/27 09:01:49;;;;;;;2.00;0.30;;;13.00;99.90;;;;;;4910957;29;20039;-73
2022/09/27 09:04:35;;;;;;;1.98;0.40;;;13.00;99.90;;;;;;4925454;29;20043;-73
2022/09/27 09:07:08;;;;;;;2.50;0.32;;;12.70;99.90;;;;;;4932089;28;20050;-73
2022/09/27 09:09:52;;;;;;;2.90;0.40;;;12.40;99.90;;;;;;4927248;29;20506;-74
2022/09/27 09:12:48;;;;;;;4.15;0.60;;;12.30;99.90;;;;;;4933031;28;20083;-74
2022/09/27 09:15:26;;;;;;;3.05;0.85;;;12.20;99.90;;;;;;4926123;28;20047;-74
2022/09/27 09:18:24;;;;;;;2.78;0.70;;;12.10;99.90;;;;;;4924014;29;20466;-73
2022/09/27 09:21:08;;;;;;;3.65;0.80;;;12.20;99.90;;;;;;4940661;28;20142;-74
2022/09/27 09:23:53;;;;;;;3.50;0.70;;;12.40;99.90;;;;;;4926426;28;20039;-74
2022/09/27 09:26:52;;;;;;;4.88;0.88;;;12.50;99.90;;;;;;4925267;29;20058;-74
2022/09/27 09:29:26;;;;;;;5.15;1.17;;;12.70;99.90;;;;;;4912640;29;20422;-74
2022/09/27 09:32:30;;;;;;;2.45;0.50;;;12.70;99.90;;;;;;4927052;29;20056;-74
2022/09/27 09:35:06;;;;;;;2.90;0.43;;;12.70;99.90;;;;;;4930766;29;20138;-74
2022/09/27 09:37:38;;;;;;;2.55;0.47;;;12.80;99.90;;;;;;4913758;29;20114;-75
2022/09/27 09:40:17;;;;;;;3.95;0.85;;;12.80;99.90;;;;;;4926927;29;20063;-74
2022/09/27 09:42:48;;;;;;;4.63;0.65;;;12.80;99.90;;;;;;4931047;29;20053;-75
2022/09/27 09:45:19;;;;;;;4.60;0.98;;;12.90;99.90;;;;;;4926000;29;20082;-74
2022/09/27 09:48:01;;;;;;;4.25;0.80;;;12.90;99.90;;;;;;4929483;29;20039;-74
2022/09/27 09:50:38;;;;;;;5.45;1.27;;;12.90;99.90;;;;;;4927818;29;20043;-74
2022/09/27 09:53:11;;;;;;;4.22;0.60;;;12.80;99.90;;;;;;4917433;29;20462;-74
2022/09/27 09:55:38;;;;;;;3.25;0.40;;;12.80;99.90;;;;;;4925035;29;20063;-74
2022/09/27 09:58:22;;;;;;;6.43;1.30;;;12.80;99.90;;;;;;4919433;29;20035;-74
2022/09/27 10:00:52;;;;;;;4.65;0.77;;;12.70;99.90;;;;;;4914604;29;20047;-73
2022/09/27 10:03:19;;;;;;;4.30;0.65;;;12.70;99.90;;;;;;4924172;29;20117;-73
2022/09/27 10:05:45;;;;;;;4.45;0.60;;;12.70;99.90;;;;;;4927905;29;20047;-73
2022/09/27 10:08:21;;;;;;;3.65;0.50;;;12.60;99.90;;;;;;4891211;28;20047;-74
2022/09/27 10:10:47;;;;;;;4.60;0.45;;;12.60;99.90;;;;;;4934848;28;20573;-74
2022/09/27 10:13:16;;;;;;;3.42;0.50;;;12.60;99.90;;;;;;4916114;29;20043;-74
2022/09/27 10:15:49;;;;;;;3.67;0.68;;;12.70;99.90;;;;;;4924696;29;20130;-74
2022/09/27 10:18:18;;;;;;;3.28;0.40;;;12.70;99.90;;;;;;4897165;29;20079;-74
2022/09/27 10:20:54;;;;;;;3.17;0.57;;;12.80;99.90;;;;;;4894632;28;20055;-75
2022/09/27 10:23:23;;;;;;;2.00;0.38;;;12.80;99.90;;;;;;4934505;28;20044;-74
2022/09/27 10:25:53;;;;;;;2.92;0.50;;;12.90;99.90;;;;;;4926196;29;20130;-74
2022/09/27 10:28:36;;;;;;;5.57;0.75;;;12.90;99.90;;;;;;4929242;28;20525;-75
2022/09/27 10:31:22;;;;;;;5.28;0.93;;;13.00;99.90;;;;;;4913469;29;20521;-74
2022/09/27 10:34:01;;;;;;;2.78;0.73;;;13.10;99.90;;;;;;4923881;29;20550;-75
2022/09/27 10:36:32;;;;;;;3.28;0.60;;;13.10;99.90;;;;;;4924133;28;20075;-75
2022/09/27 10:38:59;;;;;;;3.95;0.45;;;13.10;99.90;;;;;;4933666;28;20055;-75
2022/09/27 10:41:38;;;;;;;2.78;0.52;;;13.10;99.90;;;;;;4922860;28;20518;-75
2022/09/27 10:44:22;;;;;;;4.40;0.70;;;13.20;99.90;;;;;;4919843;29;20047;-75
2022/09/27 10:47:00;;;;;;;4.28;0.43;;;13.40;99.90;;;;;;4936220;28;20747;-75
2022/09/27 10:49:33;;;;;;;2.20;0.50;;;13.60;99.90;;;;;;4908347;28;20727;-74
2022/09/27 10:52:25;;;;;;;2.20;0.40;;;13.70;99.90;;;;;;4917548;29;20050;-75
2022/09/27 10:55:00;;;;;;;2.25;0.30;;;13.80;99.90;;;;;;4919757;29;20055;-75
2022/09/27 10:57:31;;;;;;;1.65;0.38;;;13.70;99.90;;;;;;4924246;29;20402;-74
2022/09/27 11:00:05;;;;;;;3.03;0.35;;;13.60;99.90;;;;;;4927310;29;20047;-75
2022/09/27 11:02:35;;;;;;;2.47;0.70;;;13.50;99.90;;;;;;4921612;29;20048;-74
2022/09/27 11:05:03;;;;;;;2.33;0.40;;;13.40;99.90;;;;;;4929617;28;20570;-75
2022/09/27 11:07:29;;;;;;;3.10;0.30;;;13.40;99.90;;;;;;4921051;29;20051;-75
2022/09/27 11:10:03;;;;;;;1.00;0.20;;;13.40;99.90;;;;;;4871038;29;20066;-75
2022/09/27 11:12:30;;;;;;;2.08;0.22;;;13.50;99.90;;;;;;4921917;29;20126;-76
2022/09/27 11:15:14;;;;;;;3.08;0.40;;;13.60;99.90;;;;;;4894890;29;20054;-74
2022/09/27 11:18:04;;;;;;;3.40;0.35;;;13.70;99.90;;;;;;4919422;29;20509;-75
2022/09/27 11:20:36;;;;;;;2.55;0.32;;;13.80;99.90;;;;;;4917641;28;20522;-75
2022/09/27 11:23:22;;;;;;;2.65;0.50;;;13.90;99.90;;;;;;4921000;29;20082;-75
2022/09/27 11:25:56;;;;;;;1.48;0.40;;;14.00;99.90;;;;;;4908384;29;20486;-74
2022/09/27 11:28:37;;;;;;;2.35;0.30;;;13.90;99.90;;;;;;4931777;28;20051;-75
2022/09/27 11:31:41;;;;;;;1.25;0.13;;;13.90;99.90;;;;;;4921910;29;20497;-75
2022/09/27 11:34:44;;;;;;;0.85;0.20;;;13.80;99.90;;;;;;4915571;29;20059;-75
2022/09/27 11:37:10;;;;;;;1.25;0.17;;;13.50;99.90;;;;;;4928093;28;20060;-74
2022/09/27 11:40:00;;;;;;;0.95;0.20;;;13.20;99.90;;;;;;4939073;29;20043;-74
2022/09/27 11:42:44;;;;;;;;;;;13.00;99.90;;;;;;4928445;29;20623;-74
2022/09/27 11:45:40;;;;;;;1.90;0.10;;;12.90;99.90;;;;;;4913882;29;20404;-75
2022/09/27 11:48:18;;;;;;;3.00;0.40;;;12.80;99.90;;;;;;4911207;28;20513;-75
2022/09/27 11:50:56;;;;;;;2.80;0.40;;;12.80;99.90;;;;;;4927943;29;20064;-75
2022/09/27 11:53:38;;;;;;;1.83;0.38;;;12.80;99.90;;;;;;4943500;28;20043;-74
2022/09/27 11:56:16;;;;;;;3.08;0.35;;;13.00;99.90;;;;;;4923695;29;20051;-75
2022/09/27 11:58:54;;;;;;;3.00;0.40;;;13.10;99.90;;;;;;4926301;29;20705;-75
2022/09/27 12:01:44;;;;;;;2.17;0.50;;;13.20;99.90;;;;;;4926040;29;20043;-75
2022/09/27 12:04:43;;;;;;;3.92;0.70;;;13.20;99.90;;;;;;4925840;28;20087;-74
2022/09/27 12:07:30;;;;;;;2.85;0.50;;;13.30;99.90;;;;;;4878134;29;20499;-75
2022/09/27 12:10:02;;;;;;;2.97;0.40;;;13.30;99.90;;;;;;4931239;29;20039;-75
2022/09/27 12:12:32;;;;;;;2.42;0.40;;;13.40;99.90;;;;;;4920522;28;20494;-74
2022/09/27 12:15:26;;;;;;;4.60;0.93;;;13.50;99.90;;;;;;4927716;29;20052;-74
2022/09/27 12:17:59;;;;;;;2.70;0.40;;;13.50;99.90;;;;;;4922744;29;20499;-75
2022/09/27 12:20:29;;;;;;;3.45;0.40;;;13.70;99.90;;;;;;4927182;28;20461;-74
2022/09/27 12:22:59;;;;;;;;;;;13.80;99.90;;;;;;4925663;29;20427;-75
2022/09/27 12:25:30;;;;;;;3.78;0.30;;;13.70;99.90;;;;;;4922763;28;20452;-74
2022/09/27 12:28:06;;;;;;;3.15;0.55;;;13.70;99.90;;;;;;4913388;29;20058;-74
2022/09/27 12:30:37;;;;;;;3.83;0.40;;;13.70;99.90;;;;;;4923071;29;20055;-74
2022/09/27 12:33:28;;;;;;;2.22;0.20;;;13.80;99.90;;;;;;4914581;29;20044;-74
2022/09/27 12:36:00;;;;;;;1.42;0.20;;;13.80;99.90;;;;;;4914868;29;20379;-75
2022/09/27 12:39:10;;;;;;;3.35;0.50;;;13.80;99.90;;;;;;4935730;28;20105;-73
2022/09/27 12:41:40;;;;;;;1.40;0.30;;;13.70;99.90;;;;;;4920706;28;20112;-74
2022/09/27 12:44:10;;;;;;;3.57;0.43;;;13.50;99.90;;;;;;4915146;29;20055;-74
2022/09/27 12:47:20;;;;;;;4.05;0.50;;;13.40;99.90;;;;;;4921380;28;20610;-74
2022/09/27 12:49:54;;;;;;;4.18;0.50;;;13.20;99.90;;;;;;4893162;29;21012;-73
2022/09/27 12:52:26;;;;;;;3.78;0.52;;;13.10;99.90;;;;;;4872958;29;20570;-73
2022/09/27 12:55:10;;;;;;;7.47;0.80;;;13.00;99.90;;;;;;4890915;29;20629;-74
2022/09/27 12:57:55;;;;;;;2.55;0.35;;;12.90;99.90;;;;;;4905214;29;20123;-74
2022/09/27 13:00:38;;;;;;;2.80;0.77;;;12.90;99.90;;;;;;4906965;29;20495;-73
2022/09/27 13:03:39;;;;;;;2.95;0.60;;;12.80;99.90;;;;;;4916614;29;20123;-73
2022/09/27 13:06:23;;;;;;;4.15;0.50;;;12.90;99.90;;;;;;4906528;29;20059;-73
2022/09/27 13:09:18;;;;;;;5.95;1.15;;;13.00;99.90;;;;;;4909123;29;20456;-73
2022/09/27 13:11:48;;;;;;;2.90;0.47;;;13.10;99.90;;;;;;4905718;29;20562;-74
2022/09/27 13:14:26;;;;;;;3.78;0.50;;;13.20;99.90;;;;;;4907483;29;20059;-74
2022/09/27 13:16:53;;;;;;;4.97;0.57;;;13.30;99.90;;;;;;4908794;29;20051;-74
2022/09/27 13:19:41;;;;;;;3.38;0.70;;;13.40;99.90;;;;;;4910591;29;20139;-74
2022/09/27 13:22:27;;;;;;;3.70;0.47;;;13.50;99.90;;;;;;4909060;29;20051;-74
2022/09/27 13:24:54;;;;;;;3.58;0.43;;;13.40;99.90;;;;;;4887246;29;20059;-74
2022/09/27 13:27:28;;;;;;;3.63;0.40;;;13.40;99.90;;;;;;4908031;29;20107;-73